Terminal Aerodrome Forecast
Issued by NWS New Orleans/Baton Rouge, LA

Current Version | Previous Version | Text Only | Print | Product List | Glossary On
Versions: 1 2 3 4 5 6 7 8 9 10 11 12 13 14 15 16 17 18 19 20 21 22 23 24 25 26 27 28 29
000
FTUS44 KLIX 231100
TAFNEW
TAF
KNEW 231120Z 2312/2412 09007KT P6SM BKN090 BKN150
     FM231600 VRB03KT P6SM SCT030 BKN050
     FM231830 VRB05KT P6SM VCSH BKN040
      TEMPO 2320/2324 VRB20KT 3SM TSRA BKN030CB
     FM240100 VRB05KT P6SM FEW025 SCT150=

USA.gov is the U.S. government's official web portal to all federal, state and local government web resources and services.